Lubbock, TX (79401)

3:34 AM CDT on August 24, 2016 (GMT -0500)
50th & University | | Change Station

Elev 3219 ft 33.55 °N, 101.86 °W | Updated 26 seconds ago

Overcast
Overcast
70.3 °F
Feels Like 75 °F
N
8.3
Wind Variable Wind from NE

Today
High -- | Low -- °F
--% Chance of Precip.
Yesterday
High -- | Low -- °F
Precip. -- in
Pressure 29.97 in
Visibility 10.0 miles
Clouds Few 9000 ft
Scattered Clouds 11000 ft
Mostly Cloudy 13000 ft
Overcast 17000 ft
Heat Index 75 °F
Dew Point 58 °F
Humidity 66%
Rainfall 0.00 in
Snow Depth Not available.
7:16 AM 8:22 PM
Waning Gibbous, 59% visible
METAR KLBB 240753Z 23013KT 10SM FEW090 SCT110 BKN130 OVC170 22/16 A3014 RMK AO2 RAE14 SLP147 FRQ LTGIC DSNT NE CB DSNT NE MOV NE P0000 T02170156
Pressure 29.97 in
Visibility 10.0 miles
Clouds Few 9000 ft
Scattered Clouds 11000 ft
Mostly Cloudy 13000 ft
Overcast 17000 ft
Heat Index 75 °F
Dew Point 58 °F
Humidity 66%
Rainfall 0.00 in
Snow Depth Not available.
7:16 AM 8:22 PM
Waning Gibbous, 59% visible
METAR KLBB 240753Z 23013KT 10SM FEW090 SCT110 BKN130 OVC170 22/16 A3014 RMK AO2 RAE14 SLP147 FRQ LTGIC DSNT NE CB DSNT NE MOV NE P0000 T02170156

10-Day Weather Forecast

Almanac

Astronomy

Aug. 24, 2016 Rise Set
Actual Time
Civil Twilight
Nautical Twilight
Astronomical Twilight
Moon
Length of Visible Light
Length of Day
Tomorrow will be .
, % of the Moon is Illuminated

Today's Extremes

State Highs State Lows

Community

WunderPhotos

Upload Photos

1,934,560 photos uploaded!

WunderBlog® & News

Nearby

Air Quality

  Air Quality AQ Index Pollutant
Not available.

Snow Depth

Station Depth Elevation

Earthquake Activity

City Distance Mag. Time & Date
Minimum magnitude displayed is 2.5.

Coastal Water Temperatures

Place Temperature

Stations

Nearby Weather Stations

Station Location Temp. Windchill Dew Point Humidity Wind Precip. Elev Updated Type
                   

Watches & Warnings

There are currently no watches in effect.